createdAt,value
2022-10-11T00:01:56.941Z,12.73
2022-10-11T00:04:31.394Z,12.74
2022-10-11T00:07:03.745Z,12.75
2022-10-11T00:09:35.900Z,12.75
2022-10-11T00:12:08.641Z,12.77
2022-10-11T00:14:40.763Z,12.78
2022-10-11T00:17:12.911Z,12.78
2022-10-11T00:19:47.235Z,12.78
2022-10-11T00:22:19.511Z,12.79
2022-10-11T00:24:52.968Z,12.78
2022-10-11T00:27:24.958Z,12.78
2022-10-11T00:29:57.109Z,12.76
2022-10-11T00:32:29.325Z,12.75
2022-10-11T00:35:04.820Z,12.75
2022-10-11T00:37:40.393Z,12.75
2022-10-11T00:40:17.784Z,12.74
2022-10-11T00:42:50.032Z,12.74
2022-10-11T00:45:56.788Z,12.70
2022-10-11T00:48:32.981Z,12.67
2022-10-11T00:51:14.386Z,12.66
2022-10-11T00:53:52.265Z,12.67
2022-10-11T00:56:29.126Z,12.66
2022-10-11T00:59:03.514Z,12.65
2022-10-11T01:01:35.714Z,12.64
2022-10-11T01:04:08.681Z,12.60
2022-10-11T01:06:44.763Z,12.59
2022-10-11T01:09:17.712Z,12.58
2022-10-11T01:11:51.801Z,12.59
2022-10-11T01:14:48.140Z,12.59
2022-10-11T01:17:29.602Z,12.59
2022-10-11T01:20:23.499Z,12.60
2022-10-11T01:23:25.642Z,12.59
2022-10-11T01:26:15.089Z,12.58
2022-10-11T01:28:53.319Z,12.56
2022-10-11T01:31:30.010Z,12.54
2022-10-11T01:34:06.750Z,12.53
2022-10-11T01:36:46.362Z,12.50
2022-10-11T01:39:25.250Z,12.45
2022-10-11T01:42:01.523Z,12.43
2022-10-11T01:44:35.478Z,12.42
2022-10-11T01:47:07.613Z,12.45
2022-10-11T01:49:38.073Z,12.45
2022-10-11T01:52:11.603Z,12.42
2022-10-11T01:55:09.107Z,12.41
2022-10-11T01:57:55.033Z,12.40
2022-10-11T02:00:32.837Z,12.38
2022-10-11T02:03:14.236Z,12.38
2022-10-11T02:05:53.095Z,12.37
2022-10-11T02:08:33.429Z,12.34
2022-10-11T02:11:14.839Z,12.34
2022-10-11T02:13:54.411Z,12.35
2022-10-11T02:16:32.634Z,12.37
2022-10-11T02:19:07.801Z,12.35
2022-10-11T02:21:43.514Z,12.36
2022-10-11T02:24:23.206Z,12.37
2022-10-11T02:26:58.020Z,12.38
2022-10-11T02:29:33.781Z,12.39
2022-10-11T02:32:06.277Z,12.40
2022-10-11T02:34:42.226Z,12.42
2022-10-11T02:37:22.835Z,12.44
2022-10-11T02:39:58.504Z,12.46
2022-10-11T02:42:37.216Z,12.45
2022-10-11T02:45:16.049Z,12.45
2022-10-11T02:47:49.298Z,12.46
2022-10-11T02:50:22.909Z,12.46
2022-10-11T02:52:54.913Z,12.45
2022-10-11T02:55:25.420Z,12.42
2022-10-11T02:57:57.625Z,12.39
2022-10-11T03:00:29.897Z,12.38
2022-10-11T03:03:01.759Z,12.38
2022-10-11T03:05:40.358Z,12.37
2022-10-11T03:08:14.770Z,12.35
2022-10-11T03:10:47.098Z,12.32
2022-10-11T03:13:19.062Z,12.30
2022-10-11T03:16:02.415Z,12.27
2022-10-11T03:18:35.354Z,12.28
2022-10-11T03:21:07.303Z,12.27
2022-10-11T03:23:37.772Z,12.26
2022-10-11T03:26:09.900Z,12.23
2022-10-11T03:28:42.159Z,12.23
2022-10-11T03:31:12.546Z,12.25
2022-10-11T03:33:44.453Z,12.24
2022-10-11T03:36:17.029Z,12.24
2022-10-11T03:38:49.067Z,12.22
2022-10-11T03:41:19.516Z,12.22
2022-10-11T03:43:51.609Z,12.20
2022-10-11T03:46:23.629Z,12.19
2022-10-11T03:48:55.551Z,12.17
2022-10-11T03:51:28.166Z,12.15
2022-10-11T03:54:00.686Z,12.14
2022-10-11T03:56:31.420Z,12.12
2022-10-11T03:59:03.298Z,12.08
2022-10-11T04:01:38.171Z,12.04
2022-10-11T04:04:10.242Z,12.02
2022-10-11T04:06:40.817Z,12.00
2022-10-11T04:09:12.911Z,11.94
2022-10-11T04:11:44.888Z,11.90
2022-10-11T04:14:17.269Z,11.87
2022-10-11T04:16:49.165Z,11.83
2022-10-11T04:19:20.294Z,11.78
2022-10-11T04:21:52.267Z,11.75
2022-10-11T04:24:24.205Z,11.72
2022-10-11T04:26:56.094Z,11.72
2022-10-11T04:29:32.288Z,11.72
2022-10-11T04:32:04.749Z,11.71
2022-10-11T04:34:35.476Z,11.70
2022-10-11T04:37:07.488Z,11.66
2022-10-11T04:39:38.290Z,11.65
2022-10-11T04:42:10.442Z,11.62
2022-10-11T04:44:42.405Z,11.60
2022-10-11T04:47:15.511Z,11.60
2022-10-11T04:49:47.427Z,11.59
2022-10-11T04:52:23.343Z,11.58
2022-10-11T04:54:57.308Z,11.57
2022-10-11T04:57:29.324Z,11.57
2022-10-11T05:00:01.366Z,11.56
2022-10-11T05:02:33.545Z,11.55
2022-10-11T05:05:04.354Z,11.54
2022-10-11T05:07:37.274Z,11.53
2022-10-11T05:10:11.374Z,11.52
2022-10-11T05:12:43.362Z,11.53
2022-10-11T05:15:15.305Z,11.54
2022-10-11T05:17:47.265Z,11.56
2022-10-11T05:20:19.521Z,11.58
2022-10-11T05:22:51.485Z,11.59
2022-10-11T05:25:23.374Z,11.61
2022-10-11T05:27:55.513Z,11.62
2022-10-11T05:30:27.676Z,11.64
2022-10-11T05:32:58.136Z,11.66
2022-10-11T05:35:30.108Z,11.66
2022-10-11T05:38:01.966Z,11.72
2022-10-11T05:40:34.036Z,11.76
2022-10-11T05:43:04.688Z,11.81
2022-10-11T05:45:38.841Z,11.87
2022-10-11T05:48:11.228Z,11.93
2022-10-11T05:50:43.408Z,11.98
2022-10-11T05:53:15.494Z,12.00
2022-10-11T05:55:47.369Z,12.04
2022-10-11T05:58:18.794Z,12.06
2022-10-11T06:00:50.881Z,12.07
2022-10-11T06:03:22.797Z,12.07
2022-10-11T06:05:57.034Z,12.09
2022-10-11T06:08:29.702Z,12.11
2022-10-11T06:11:12.049Z,12.20
2022-10-11T06:13:44.768Z,12.39
2022-10-11T06:16:17.175Z,12.52
2022-10-11T06:18:49.340Z,12.57
2022-10-11T06:21:19.714Z,12.66
2022-10-11T06:23:58.366Z,12.78
2022-10-11T06:26:33.213Z,12.91
2022-10-11T06:29:05.459Z,12.97
2022-10-11T06:31:38.305Z,13.01
2022-10-11T06:34:08.832Z,13.01
2022-10-11T06:36:40.854Z,13.03
2022-10-11T06:39:11.825Z,13.05
2022-10-11T06:41:43.768Z,12.96
2022-10-11T06:44:16.774Z,12.91
2022-10-11T06:46:49.004Z,12.89
2022-10-11T06:49:23.307Z,12.97
2022-10-11T06:51:55.846Z,13.04
2022-10-11T06:54:28.211Z,13.13
2022-10-11T06:57:01.157Z,13.18
2022-10-11T06:59:33.611Z,13.17
2022-10-11T07:02:05.896Z,13.12
2022-10-11T07:04:37.981Z,13.09
2022-10-11T07:07:10.003Z,13.05
2022-10-11T07:09:41.967Z,13.04
2022-10-11T07:12:12.389Z,13.08
2022-10-11T07:14:44.686Z,13.18
2022-10-11T07:17:16.929Z,13.36
2022-10-11T07:19:49.661Z,13.55
2022-10-11T07:22:21.925Z,13.74
2022-10-11T07:24:54.062Z,13.90
2022-10-11T07:27:26.623Z,13.98
2022-10-11T07:29:58.860Z,13.99
2022-10-11T07:32:31.222Z,13.90
2022-10-11T07:35:01.735Z,13.79
2022-10-11T07:37:34.248Z,13.65
2022-10-11T07:40:10.853Z,13.54
2022-10-11T07:42:42.904Z,13.44
2022-10-11T07:45:15.368Z,13.38
2022-10-11T07:47:47.628Z,13.34
2022-10-11T07:50:18.310Z,13.37
2022-10-11T07:52:50.306Z,13.44
2022-10-11T07:55:22.348Z,13.55
2022-10-11T07:57:52.792Z,13.65
2022-10-11T08:00:25.454Z,13.76
2022-10-11T08:02:57.606Z,13.77
2022-10-11T08:05:29.892Z,13.77
2022-10-11T08:08:01.832Z,13.76
2022-10-11T08:10:37.661Z,13.79
2022-10-11T08:13:10.283Z,13.89
2022-10-11T08:15:42.623Z,13.99
2022-10-11T08:18:14.814Z,14.14
2022-10-11T08:20:47.366Z,14.31
2022-10-11T08:23:20.164Z,14.42
2022-10-11T08:25:57.486Z,14.55
2022-10-11T08:28:37.124Z,14.77
2022-10-11T08:31:12.840Z,15.06
2022-10-11T08:33:45.093Z,15.32
2022-10-11T08:36:17.434Z,15.34
2022-10-11T08:38:49.604Z,15.37
2022-10-11T08:41:39.019Z,15.55
2022-10-11T08:44:24.037Z,15.99
2022-10-11T08:47:04.069Z,16.46
2022-10-11T08:49:36.872Z,16.62
2022-10-11T08:52:20.192Z,16.59
2022-10-11T08:54:56.123Z,16.40
2022-10-11T08:57:31.512Z,16.06
2022-10-11T09:00:06.897Z,15.80
2022-10-11T09:03:07.537Z,15.48
2022-10-11T09:05:52.385Z,15.31
2022-10-11T09:08:34.483Z,15.58
2022-10-11T09:11:10.846Z,15.95
2022-10-11T09:14:08.466Z,16.05
2022-10-11T09:16:54.864Z,16.26
2022-10-11T09:19:44.523Z,16.36
2022-10-11T09:22:28.116Z,16.17
2022-10-11T09:25:12.886Z,16.07
2022-10-11T09:28:02.349Z,15.99
2022-10-11T09:30:37.181Z,15.96
2022-10-11T09:33:18.888Z,16.16
2022-10-11T09:35:53.060Z,16.42
2022-10-11T09:38:39.730Z,16.60
2022-10-11T09:41:19.588Z,16.77
2022-10-11T09:43:53.737Z,16.84
2022-10-11T09:46:32.169Z,16.89
2022-10-11T09:49:08.875Z,16.96
2022-10-11T09:51:42.284Z,17.06
2022-10-11T09:54:14.459Z,17.41
2022-10-11T09:56:48.043Z,17.49
2022-10-11T09:59:29.230Z,17.30
2022-10-11T10:02:21.884Z,17.22
2022-10-11T10:05:03.135Z,17.16
2022-10-11T10:07:36.900Z,17.04
2022-10-11T10:10:32.201Z,17.00
2022-10-11T10:13:07.279Z,17.00
2022-10-11T10:15:46.190Z,17.01
2022-10-11T10:18:25.130Z,16.94
2022-10-11T10:21:00.505Z,16.77
2022-10-11T10:23:36.555Z,16.52
2022-10-11T10:26:20.763Z,16.49
2022-10-11T10:29:06.078Z,16.59
2022-10-11T10:32:01.974Z,16.56
2022-10-11T10:34:37.666Z,16.30
2022-10-11T10:37:19.610Z,16.12
2022-10-11T10:39:56.479Z,16.10
2022-10-11T10:42:29.109Z,16.06
2022-10-11T10:45:01.559Z,15.85
2022-10-11T10:47:52.998Z,15.81
2022-10-11T10:50:32.542Z,15.92
2022-10-11T10:53:14.058Z,16.09
2022-10-11T10:55:52.720Z,16.25
2022-10-11T10:58:42.343Z,16.39
2022-10-11T11:01:21.663Z,16.47
2022-10-11T11:04:01.325Z,16.47
2022-10-11T11:06:39.651Z,16.35
2022-10-11T11:09:29.166Z,16.24
2022-10-11T11:12:13.166Z,16.20
2022-10-11T11:14:55.732Z,16.06
2022-10-11T11:17:39.592Z,15.96
2022-10-11T11:20:25.902Z,15.95
2022-10-11T11:23:04.459Z,16.02
2022-10-11T11:25:48.523Z,16.05
2022-10-11T11:28:34.559Z,16.05
2022-10-11T11:31:16.920Z,16.03
2022-10-11T11:34:00.867Z,15.94
2022-10-11T11:36:40.075Z,15.91
2022-10-11T11:39:18.134Z,15.97
2022-10-11T11:41:56.589Z,16.02
2022-10-11T11:44:34.028Z,16.03
2022-10-11T11:47:12.209Z,16.01
2022-10-11T11:49:47.357Z,15.94
2022-10-11T11:52:27.930Z,15.89
2022-10-11T11:55:09.507Z,15.86
2022-10-11T11:57:55.752Z,15.90
2022-10-11T12:00:31.597Z,15.91
2022-10-11T12:03:10.719Z,15.87
2022-10-11T12:06:23.560Z,15.85
2022-10-11T12:09:04.071Z,15.82
2022-10-11T12:11:55.751Z,15.81
2022-10-11T12:14:36.875Z,15.80
2022-10-11T12:17:18.521Z,15.73
2022-10-11T12:20:11.333Z,15.69
2022-10-11T12:23:01.431Z,15.64
2022-10-11T12:25:43.491Z,15.59
2022-10-11T12:29:01.147Z,15.60
2022-10-11T12:31:35.473Z,15.58
2022-10-11T12:34:38.448Z,15.53
2022-10-11T12:37:50.965Z,15.49
2022-10-11T12:40:41.883Z,15.44
2022-10-11T12:43:27.108Z,15.37
2022-10-11T12:46:19.343Z,15.37
2022-10-11T12:48:55.964Z,15.34
2022-10-11T12:51:41.120Z,15.34
2022-10-11T12:54:34.633Z,15.34
2022-10-11T12:57:46.155Z,15.39
2022-10-11T13:00:28.307Z,15.41
2022-10-11T13:03:02.377Z,15.41
2022-10-11T13:05:45.331Z,15.41
2022-10-11T13:08:24.994Z,15.41
2022-10-11T13:11:03.372Z,15.42
2022-10-11T13:13:39.761Z,15.39
2022-10-11T13:16:16.142Z,15.35
2022-10-11T13:18:55.293Z,15.30
2022-10-11T13:21:36.211Z,15.26
2022-10-11T13:24:14.708Z,15.23
2022-10-11T13:26:49.286Z,15.15
2022-10-11T13:29:28.660Z,15.09
2022-10-11T13:32:01.827Z,15.09
2022-10-11T13:34:38.972Z,15.09
2022-10-11T13:37:17.359Z,15.10
2022-10-11T13:39:52.247Z,15.10
2022-10-11T13:42:30.580Z,15.10
2022-10-11T13:45:04.706Z,15.10
2022-10-11T13:47:38.010Z,15.12
2022-10-11T13:50:22.770Z,15.13
2022-10-11T13:52:59.483Z,15.16
2022-10-11T13:55:36.295Z,15.18
2022-10-11T14:01:08.085Z,15.14
2022-10-11T14:03:47.795Z,15.13
2022-10-11T14:06:19.955Z,15.09
2022-10-11T14:08:55.180Z,15.08
2022-10-11T14:11:38.696Z,15.07
2022-10-11T14:14:42.430Z,15.04
2022-10-11T14:17:19.917Z,15.02
2022-10-11T14:20:11.545Z,15.00
2022-10-11T14:22:44.273Z,15.00
2022-10-11T14:25:16.992Z,14.99
2022-10-11T14:27:49.807Z,14.96
2022-10-11T14:30:26.643Z,14.89
2022-10-11T14:33:03.052Z,14.86
2022-10-11T14:35:39.068Z,14.83
2022-10-11T14:38:13.757Z,14.80
2022-10-11T14:40:45.989Z,14.77
2022-10-11T14:43:18.093Z,14.77
2022-10-11T14:45:51.837Z,14.74
2022-10-11T14:48:50.286Z,14.70
2022-10-11T14:51:22.264Z,14.68
2022-10-11T14:53:54.870Z,14.67
2022-10-11T14:56:26.999Z,14.65
2022-10-11T14:58:59.152Z,14.62
2022-10-11T15:01:31.388Z,14.56
2022-10-11T15:04:04.668Z,14.53
2022-10-11T15:06:41.709Z,14.49
2022-10-11T15:09:13.942Z,14.45
2022-10-11T15:11:46.124Z,14.42
2022-10-11T15:14:18.694Z,14.41
2022-10-11T15:16:51.074Z,14.40
2022-10-11T15:19:22.232Z,14.38
2022-10-11T15:21:54.395Z,14.32
2022-10-11T15:24:28.082Z,14.28
2022-10-11T15:27:00.033Z,14.21
2022-10-11T15:29:30.500Z,14.18
2022-10-11T15:32:02.664Z,14.13
2022-10-11T15:34:33.120Z,14.09
2022-10-11T15:37:07.930Z,14.03
2022-10-11T15:39:40.073Z,13.98
2022-10-11T15:42:10.485Z,13.96
2022-10-11T15:44:43.174Z,13.93
2022-10-11T15:47:15.691Z,13.90
2022-10-11T15:49:47.691Z,13.88
2022-10-11T15:52:18.357Z,13.84
2022-10-11T15:54:50.323Z,13.79
2022-10-11T15:57:20.699Z,13.75
2022-10-11T15:59:52.546Z,13.69
2022-10-11T16:02:25.677Z,13.60
2022-10-11T16:04:57.638Z,13.52
2022-10-11T16:07:29.837Z,13.42
2022-10-11T16:10:01.965Z,13.31
2022-10-11T16:12:34.014Z,13.17
2022-10-11T16:15:06.941Z,13.08
2022-10-11T16:17:39.312Z,13.02
2022-10-11T16:20:11.979Z,12.95
2022-10-11T16:22:44.619Z,12.88
2022-10-11T16:25:16.805Z,12.82
2022-10-11T16:27:48.923Z,12.76
2022-10-11T16:30:21.448Z,12.70
2022-10-11T16:32:53.597Z,12.61
2022-10-11T16:35:24.965Z,12.50
2022-10-11T16:37:59.044Z,12.35
2022-10-11T16:40:31.161Z,12.26
2022-10-11T16:43:07.418Z,12.19
2022-10-11T16:45:40.288Z,12.12
2022-10-11T16:48:12.233Z,12.02
2022-10-11T16:50:42.648Z,11.93
2022-10-11T16:53:15.645Z,11.84
2022-10-11T16:55:47.689Z,11.77
2022-10-11T16:58:19.634Z,11.65
2022-10-11T17:00:51.729Z,11.59
2022-10-11T17:03:22.161Z,11.52
2022-10-11T17:05:54.125Z,11.41
2022-10-11T17:08:26.373Z,11.33
2022-10-11T17:10:59.107Z,11.27
2022-10-11T17:13:31.166Z,11.22
2022-10-11T17:16:03.551Z,11.13
2022-10-11T17:18:35.873Z,11.04
2022-10-11T17:21:12.012Z,10.93
2022-10-11T17:23:44.213Z,10.87
2022-10-11T17:26:19.108Z,10.85
2022-10-11T17:28:51.804Z,10.82
2022-10-11T17:31:24.888Z,10.76
2022-10-11T17:33:58.763Z,10.71
2022-10-11T17:36:34.802Z,10.64
2022-10-11T17:39:09.396Z,10.59
2022-10-11T17:41:42.231Z,10.54
2022-10-11T17:44:17.463Z,10.46
2022-10-11T17:46:51.645Z,10.39
2022-10-11T17:49:24.350Z,10.33
2022-10-11T17:51:56.743Z,10.26
2022-10-11T17:54:29.610Z,10.21
2022-10-11T17:57:02.990Z,10.17
2022-10-11T17:59:37.842Z,10.10
2022-10-11T18:02:10.364Z,10.06
2022-10-11T18:04:43.059Z,10.04
2022-10-11T18:07:17.603Z,10.01
2022-10-11T18:09:51.031Z,9.99
2022-10-11T18:12:23.863Z,9.96
2022-10-11T18:15:02.390Z,9.94
2022-10-11T18:17:35.089Z,9.91
2022-10-11T18:20:11.955Z,9.88
2022-10-11T18:22:44.255Z,9.84
2022-10-11T18:25:16.881Z,9.81
2022-10-11T18:27:49.877Z,9.74
2022-10-11T18:30:22.346Z,9.66
2022-10-11T18:32:57.855Z,9.60
2022-10-11T18:35:28.363Z,9.56
2022-10-11T18:38:01.147Z,9.47
2022-10-11T18:40:33.993Z,9.40
2022-10-11T18:43:06.438Z,9.36
2022-10-11T18:45:39.399Z,9.31
2022-10-11T18:48:11.575Z,9.26
2022-10-11T18:50:43.651Z,9.22
2022-10-11T18:53:15.677Z,9.12
2022-10-11T18:55:47.736Z,9.05
2022-10-11T18:58:18.574Z,8.98
2022-10-11T19:00:51.518Z,8.89
2022-10-11T19:03:24.035Z,8.87
2022-10-11T19:05:57.327Z,8.88
2022-10-11T19:08:30.216Z,8.89
2022-10-11T19:11:10.645Z,8.86
2022-10-11T19:13:44.415Z,8.84
2022-10-11T19:16:18.527Z,8.81
2022-10-11T19:18:52.608Z,8.77
2022-10-11T19:21:25.880Z,8.72
2022-10-11T19:23:58.613Z,8.71
2022-10-11T19:26:33.782Z,8.72
2022-10-11T19:29:09.059Z,8.73
2022-10-11T19:31:44.610Z,8.72
2022-10-11T19:34:17.595Z,8.70
2022-10-11T19:36:52.951Z,8.68
2022-10-11T19:39:26.104Z,8.66
2022-10-11T19:41:58.183Z,8.62
2022-10-11T19:44:32.517Z,8.51
2022-10-11T19:47:08.192Z,8.42
2022-10-11T19:49:40.104Z,8.37
2022-10-11T19:52:13.391Z,8.31
2022-10-11T19:54:45.785Z,8.23
2022-10-11T19:57:16.129Z,8.19
2022-10-11T19:59:48.310Z,8.15
2022-10-11T20:02:20.716Z,8.14
2022-10-11T20:04:53.265Z,8.07
2022-10-11T20:07:25.518Z,7.99
2022-10-11T20:09:57.537Z,7.94
2022-10-11T20:12:29.807Z,7.90
2022-10-11T20:15:01.996Z,7.85
2022-10-11T20:17:46.438Z,7.81
2022-10-11T20:20:19.713Z,7.74
2022-10-11T20:22:53.553Z,7.66
2022-10-11T20:25:25.885Z,7.58
2022-10-11T20:27:56.302Z,7.51
2022-10-11T20:30:28.315Z,7.46
2022-10-11T20:33:00.205Z,7.45
2022-10-11T20:35:32.468Z,7.45
2022-10-11T20:38:02.855Z,7.44
2022-10-11T20:40:35.165Z,7.41
2022-10-11T20:43:07.349Z,7.39
2022-10-11T20:45:37.876Z,7.35
2022-10-11T20:48:09.872Z,7.30
2022-10-11T20:50:46.529Z,7.28
2022-10-11T20:53:18.437Z,7.28
2022-10-11T20:55:51.086Z,7.23
2022-10-11T20:58:24.220Z,7.21
2022-10-11T21:00:56.288Z,7.18
2022-10-11T21:03:28.261Z,7.16
2022-10-11T21:06:03.586Z,7.12
2022-10-11T21:08:36.922Z,7.10
2022-10-11T21:11:10.813Z,7.08
2022-10-11T21:13:42.942Z,7.06
2022-10-11T21:16:16.889Z,7.03
2022-10-11T21:18:53.171Z,7.03
2022-10-11T21:21:25.993Z,7.06
2022-10-11T21:23:59.129Z,7.13
2022-10-11T21:26:32.066Z,7.16
2022-10-11T21:29:04.801Z,7.18
2022-10-11T21:31:36.808Z,7.19
2022-10-11T21:34:09.103Z,7.19
2022-10-11T21:36:41.198Z,7.18
2022-10-11T21:39:13.200Z,7.15
2022-10-11T21:41:46.567Z,7.10
2022-10-11T21:44:19.133Z,7.07
2022-10-11T21:47:07.633Z,7.01
2022-10-11T21:49:39.971Z,6.96
2022-10-11T21:52:12.316Z,6.94
2022-10-11T21:54:44.294Z,6.94
2022-10-11T21:57:16.253Z,6.94
2022-10-11T21:59:48.323Z,6.89
2022-10-11T22:02:20.265Z,6.86
2022-10-11T22:04:52.273Z,6.85
2022-10-11T22:07:24.477Z,6.86
2022-10-11T22:09:55.027Z,6.84
2022-10-11T22:12:26.984Z,6.80
2022-10-11T22:14:59.000Z,6.73
2022-10-11T22:17:30.998Z,6.70
2022-10-11T22:20:03.206Z,6.69
2022-10-11T22:22:35.604Z,6.69
2022-10-11T22:25:09.504Z,6.66
2022-10-11T22:27:41.461Z,6.68
2022-10-11T22:30:14.160Z,6.66
2022-10-11T22:32:46.087Z,6.62
2022-10-11T22:35:18.255Z,6.55
2022-10-11T22:37:51.083Z,6.49
2022-10-11T22:40:23.117Z,6.48
2022-10-11T22:42:54.950Z,6.44
2022-10-11T22:45:26.868Z,6.41
2022-10-11T22:47:58.947Z,6.38
2022-10-11T22:50:30.939Z,6.36
2022-10-11T22:53:01.510Z,6.35
2022-10-11T22:55:33.828Z,6.34
2022-10-11T22:58:06.724Z,6.32
2022-10-11T23:00:38.832Z,6.32
2022-10-11T23:03:09.293Z,6.28
2022-10-11T23:05:44.352Z,6.26
2022-10-11T23:08:14.810Z,6.24
2022-10-11T23:10:46.735Z,6.19
2022-10-11T23:13:19.067Z,6.15
2022-10-11T23:15:50.986Z,6.11
2022-10-11T23:18:23.213Z,6.09
2022-10-11T23:20:53.633Z,6.06
2022-10-11T23:23:25.677Z,6.02
2022-10-11T23:26:05.194Z,6.00
2022-10-11T23:28:37.458Z,5.99
2022-10-11T23:31:14.521Z,6.00
2022-10-11T23:33:48.150Z,5.98
2022-10-11T23:36:22.635Z,5.95
2022-10-11T23:38:56.273Z,5.90
2022-10-11T23:41:30.628Z,5.83
2022-10-11T23:44:02.717Z,5.77
2022-10-11T23:46:35.051Z,5.74
2022-10-11T23:49:07.289Z,5.70
2022-10-11T23:51:39.212Z,5.68
2022-10-11T23:54:11.901Z,5.67
2022-10-11T23:56:44.030Z,5.67
2022-10-11T23:59:14.593Z,5.70
